sensor_id;sensor_type;location;lat;lon;timestamp;P1;durP1;ratioP1;P2;durP2;ratioP2
69985;SDS011;57328;52.054;5.294;2023-06-22T00:01:19;10.45;;;4.50;;
69985;SDS011;57328;52.054;5.294;2023-06-22T00:03:47;11.60;;;4.32;;
69985;SDS011;57328;52.054;5.294;2023-06-22T00:06:15;10.68;;;4.32;;
69985;SDS011;57328;52.054;5.294;2023-06-22T00:08:42;10.48;;;4.93;;
69985;SDS011;57328;52.054;5.294;2023-06-22T00:11:09;14.77;;;5.30;;
69985;SDS011;57328;52.054;5.294;2023-06-22T00:13:37;9.85;;;3.85;;
69985;SDS011;57328;52.054;5.294;2023-06-22T00:16:04;7.97;;;4.15;;
69985;SDS011;57328;52.054;5.294;2023-06-22T00:18:32;9.30;;;3.97;;
69985;SDS011;57328;52.054;5.294;2023-06-22T00:20:59;10.25;;;4.80;;
69985;SDS011;57328;52.054;5.294;2023-06-22T00:23:26;10.00;;;4.25;;
69985;SDS011;57328;52.054;5.294;2023-06-22T00:25:54;7.95;;;4.03;;
69985;SDS011;57328;52.054;5.294;2023-06-22T00:28:21;9.25;;;4.35;;
69985;SDS011;57328;52.054;5.294;2023-06-22T00:30:48;8.00;;;3.90;;
69985;SDS011;57328;52.054;5.294;2023-06-22T00:33:16;8.25;;;4.32;;
69985;SDS011;57328;52.054;5.294;2023-06-22T00:35:43;11.90;;;4.93;;
69985;SDS011;57328;52.054;5.294;2023-06-22T00:38:11;11.55;;;4.93;;
69985;SDS011;57328;52.054;5.294;2023-06-22T00:40:38;12.50;;;5.45;;
69985;SDS011;57328;52.054;5.294;2023-06-22T00:43:06;12.57;;;5.15;;
69985;SDS011;57328;52.054;5.294;2023-06-22T00:45:33;9.30;;;5.07;;
69985;SDS011;57328;52.054;5.294;2023-06-22T00:48:00;11.90;;;4.88;;
69985;SDS011;57328;52.054;5.294;2023-06-22T00:50:31;11.90;;;5.03;;
69985;SDS011;57328;52.054;5.294;2023-06-22T00:53:05;10.10;;;5.22;;
69985;SDS011;57328;52.054;5.294;2023-06-22T00:55:36;10.70;;;5.32;;
69985;SDS011;57328;52.054;5.294;2023-06-22T00:58:04;10.15;;;5.13;;
69985;SDS011;57328;52.054;5.294;2023-06-22T01:00:31;9.93;;;4.70;;
69985;SDS011;57328;52.054;5.294;2023-06-22T01:02:59;9.85;;;4.38;;
69985;SDS011;57328;52.054;5.294;2023-06-22T01:05:26;8.93;;;4.30;;
69985;SDS011;57328;52.054;5.294;2023-06-22T01:10:44;9.23;;;4.47;;
69985;SDS011;57328;52.054;5.294;2023-06-22T01:15:55;10.68;;;4.95;;
69985;SDS011;57328;52.054;5.294;2023-06-22T01:18:24;9.18;;;4.85;;
69985;SDS011;57328;52.054;5.294;2023-06-22T01:20:53;11.80;;;5.28;;
69985;SDS011;57328;52.054;5.294;2023-06-22T01:23:37;10.52;;;4.78;;
69985;SDS011;57328;52.054;5.294;2023-06-22T01:26:17;11.27;;;4.82;;
69985;SDS011;57328;52.054;5.294;2023-06-22T01:28:55;11.45;;;5.32;;
69985;SDS011;57328;52.054;5.294;2023-06-22T01:31:24;11.63;;;4.97;;
69985;SDS011;57328;52.054;5.294;2023-06-22T01:33:59;11.52;;;5.18;;
69985;SDS011;57328;52.054;5.294;2023-06-22T01:36:26;10.45;;;5.18;;
69985;SDS011;57328;52.054;5.294;2023-06-22T01:38:54;10.00;;;4.65;;
69985;SDS011;57328;52.054;5.294;2023-06-22T01:41:21;10.75;;;5.32;;
69985;SDS011;57328;52.054;5.294;2023-06-22T01:43:52;9.98;;;4.13;;
69985;SDS011;57328;52.054;5.294;2023-06-22T01:46:20;8.57;;;3.90;;
69985;SDS011;57328;52.054;5.294;2023-06-22T01:48:48;11.07;;;4.28;;
69985;SDS011;57328;52.054;5.294;2023-06-22T01:51:15;9.50;;;4.22;;
69985;SDS011;57328;52.054;5.294;2023-06-22T01:53:42;8.20;;;4.13;;
69985;SDS011;57328;52.054;5.294;2023-06-22T01:56:10;9.98;;;5.03;;
69985;SDS011;57328;52.054;5.294;2023-06-22T01:58:39;9.70;;;4.60;;
69985;SDS011;57328;52.054;5.294;2023-06-22T02:01:11;10.25;;;4.30;;
69985;SDS011;57328;52.054;5.294;2023-06-22T02:03:43;9.07;;;4.10;;
69985;SDS011;57328;52.054;5.294;2023-06-22T02:06:16;11.27;;;4.13;;
69985;SDS011;57328;52.054;5.294;2023-06-22T02:08:47;7.32;;;4.05;;
69985;SDS011;57328;52.054;5.294;2023-06-22T02:11:15;10.02;;;5.05;;
69985;SDS011;57328;52.054;5.294;2023-06-22T02:16:11;9.88;;;4.68;;
69985;SDS011;57328;52.054;5.294;2023-06-22T02:18:38;12.88;;;4.95;;
69985;SDS011;57328;52.054;5.294;2023-06-22T02:21:06;10.45;;;5.00;;
69985;SDS011;57328;52.054;5.294;2023-06-22T02:23:33;11.75;;;4.88;;
69985;SDS011;57328;52.054;5.294;2023-06-22T02:26:02;11.70;;;4.85;;
69985;SDS011;57328;52.054;5.294;2023-06-22T02:28:30;9.25;;;4.82;;
69985;SDS011;57328;52.054;5.294;2023-06-22T02:30:57;10.13;;;4.82;;
69985;SDS011;57328;52.054;5.294;2023-06-22T02:33:24;10.95;;;4.93;;
69985;SDS011;57328;52.054;5.294;2023-06-22T02:35:51;10.75;;;4.38;;
69985;SDS011;57328;52.054;5.294;2023-06-22T02:38:19;10.57;;;4.65;;
69985;SDS011;57328;52.054;5.294;2023-06-22T02:40:46;8.57;;;4.40;;
69985;SDS011;57328;52.054;5.294;2023-06-22T02:43:13;8.57;;;4.40;;
69985;SDS011;57328;52.054;5.294;2023-06-22T02:45:40;7.22;;;3.67;;
69985;SDS011;57328;52.054;5.294;2023-06-22T02:48:08;9.13;;;4.40;;
69985;SDS011;57328;52.054;5.294;2023-06-22T02:50:35;11.35;;;4.25;;
69985;SDS011;57328;52.054;5.294;2023-06-22T02:53:02;8.52;;;4.15;;
69985;SDS011;57328;52.054;5.294;2023-06-22T02:55:30;9.95;;;4.32;;
69985;SDS011;57328;52.054;5.294;2023-06-22T02:57:57;7.72;;;4.35;;
69985;SDS011;57328;52.054;5.294;2023-06-22T03:00:26;8.57;;;4.25;;
69985;SDS011;57328;52.054;5.294;2023-06-22T03:02:57;11.05;;;5.40;;
69985;SDS011;57328;52.054;5.294;2023-06-22T03:05:24;10.38;;;4.55;;
69985;SDS011;57328;52.054;5.294;2023-06-22T03:07:52;13.60;;;4.70;;
69985;SDS011;57328;52.054;5.294;2023-06-22T03:10:19;12.50;;;4.30;;
69985;SDS011;57328;52.054;5.294;2023-06-22T03:12:49;8.23;;;3.75;;
69985;SDS011;57328;52.054;5.294;2023-06-22T03:15:16;8.82;;;4.20;;
69985;SDS011;57328;52.054;5.294;2023-06-22T03:17:45;8.57;;;4.28;;
69985;SDS011;57328;52.054;5.294;2023-06-22T03:20:13;10.52;;;4.97;;
69985;SDS011;57328;52.054;5.294;2023-06-22T03:22:40;8.88;;;4.70;;
69985;SDS011;57328;52.054;5.294;2023-06-22T03:25:09;9.57;;;4.43;;
69985;SDS011;57328;52.054;5.294;2023-06-22T03:30:59;9.57;;;4.38;;
69985;SDS011;57328;52.054;5.294;2023-06-22T03:33:26;9.98;;;4.78;;
69985;SDS011;57328;52.054;5.294;2023-06-22T03:35:54;10.60;;;4.32;;
69985;SDS011;57328;52.054;5.294;2023-06-22T03:38:21;12.45;;;4.82;;
69985;SDS011;57328;52.054;5.294;2023-06-22T03:40:48;12.15;;;5.07;;
69985;SDS011;57328;52.054;5.294;2023-06-22T03:43:15;8.82;;;4.35;;
69985;SDS011;57328;52.054;5.294;2023-06-22T03:45:42;11.15;;;5.15;;
69985;SDS011;57328;52.054;5.294;2023-06-22T03:48:12;10.80;;;5.65;;
69985;SDS011;57328;52.054;5.294;2023-06-22T03:50:39;12.20;;;6.13;;
69985;SDS011;57328;52.054;5.294;2023-06-22T03:53:06;11.73;;;5.90;;
69985;SDS011;57328;52.054;5.294;2023-06-22T03:55:34;11.00;;;6.43;;
69985;SDS011;57328;52.054;5.294;2023-06-22T03:58:01;16.25;;;7.07;;
69985;SDS011;57328;52.054;5.294;2023-06-22T04:00:32;14.13;;;6.50;;
69985;SDS011;57328;52.054;5.294;2023-06-22T04:02:59;13.40;;;6.30;;
69985;SDS011;57328;52.054;5.294;2023-06-22T04:05:26;13.30;;;6.90;;
69985;SDS011;57328;52.054;5.294;2023-06-22T04:07:54;15.13;;;6.88;;
69985;SDS011;57328;52.054;5.294;2023-06-22T04:10:21;16.38;;;7.28;;
69985;SDS011;57328;52.054;5.294;2023-06-22T04:12:48;14.18;;;6.88;;
69985;SDS011;57328;52.054;5.294;2023-06-22T04:15:15;12.48;;;7.10;;
69985;SDS011;57328;52.054;5.294;2023-06-22T04:17:42;13.75;;;6.38;;
69985;SDS011;57328;52.054;5.294;2023-06-22T04:20:10;11.52;;;6.00;;
69985;SDS011;57328;52.054;5.294;2023-06-22T04:22:37;14.68;;;6.25;;
69985;SDS011;57328;52.054;5.294;2023-06-22T04:25:05;11.77;;;6.38;;
69985;SDS011;57328;52.054;5.294;2023-06-22T04:27:33;12.85;;;6.20;;
69985;SDS011;57328;52.054;5.294;2023-06-22T04:30:06;12.15;;;6.57;;
69985;SDS011;57328;52.054;5.294;2023-06-22T04:32:34;11.43;;;6.03;;
69985;SDS011;57328;52.054;5.294;2023-06-22T04:35:05;12.65;;;6.55;;
69985;SDS011;57328;52.054;5.294;2023-06-22T04:37:33;14.65;;;6.63;;
69985;SDS011;57328;52.054;5.294;2023-06-22T04:40:00;12.05;;;6.90;;
69985;SDS011;57328;52.054;5.294;2023-06-22T04:42:30;11.35;;;6.40;;
69985;SDS011;57328;52.054;5.294;2023-06-22T04:44:58;13.50;;;6.88;;
69985;SDS011;57328;52.054;5.294;2023-06-22T04:47:27;12.10;;;6.20;;
69985;SDS011;57328;52.054;5.294;2023-06-22T04:49:55;11.45;;;5.97;;
69985;SDS011;57328;52.054;5.294;2023-06-22T04:52:22;10.93;;;6.65;;
69985;SDS011;57328;52.054;5.294;2023-06-22T04:54:50;10.57;;;6.28;;
69985;SDS011;57328;52.054;5.294;2023-06-22T04:57:21;10.23;;;6.57;;
69985;SDS011;57328;52.054;5.294;2023-06-22T04:59:59;11.63;;;7.32;;
69985;SDS011;57328;52.054;5.294;2023-06-22T05:02:38;11.95;;;7.07;;
69985;SDS011;57328;52.054;5.294;2023-06-22T05:05:07;12.48;;;6.82;;
69985;SDS011;57328;52.054;5.294;2023-06-22T05:07:43;11.25;;;6.43;;
69985;SDS011;57328;52.054;5.294;2023-06-22T05:10:11;10.15;;;6.95;;
69985;SDS011;57328;52.054;5.294;2023-06-22T05:15:07;11.35;;;6.90;;
69985;SDS011;57328;52.054;5.294;2023-06-22T05:20:02;12.13;;;6.90;;
69985;SDS011;57328;52.054;5.294;2023-06-22T05:22:32;10.98;;;7.32;;
69985;SDS011;57328;52.054;5.294;2023-06-22T05:24:59;12.30;;;7.45;;
69985;SDS011;57328;52.054;5.294;2023-06-22T05:27:27;12.70;;;7.80;;
69985;SDS011;57328;52.054;5.294;2023-06-22T05:29:56;12.00;;;7.32;;
69985;SDS011;57328;52.054;5.294;2023-06-22T05:32:23;13.13;;;7.93;;
69985;SDS011;57328;52.054;5.294;2023-06-22T05:34:50;13.68;;;7.53;;
69985;SDS011;57328;52.054;5.294;2023-06-22T05:40:06;15.63;;;8.55;;
69985;SDS011;57328;52.054;5.294;2023-06-22T05:42:33;14.95;;;7.75;;
69985;SDS011;57328;52.054;5.294;2023-06-22T05:45:00;14.30;;;8.63;;
69985;SDS011;57328;52.054;5.294;2023-06-22T05:47:29;16.30;;;9.00;;
69985;SDS011;57328;52.054;5.294;2023-06-22T05:49:56;14.32;;;9.13;;
69985;SDS011;57328;52.054;5.294;2023-06-22T05:52:24;14.90;;;9.23;;
69985;SDS011;57328;52.054;5.294;2023-06-22T05:54:51;14.93;;;9.50;;
69985;SDS011;57328;52.054;5.294;2023-06-22T05:57:18;17.15;;;9.95;;
69985;SDS011;57328;52.054;5.294;2023-06-22T05:59:48;16.60;;;10.57;;
69985;SDS011;57328;52.054;5.294;2023-06-22T06:02:15;15.77;;;10.70;;
69985;SDS011;57328;52.054;5.294;2023-06-22T06:04:43;16.60;;;10.65;;
69985;SDS011;57328;52.054;5.294;2023-06-22T06:07:10;17.75;;;12.07;;
69985;SDS011;57328;52.054;5.294;2023-06-22T06:09:37;16.70;;;11.73;;
69985;SDS011;57328;52.054;5.294;2023-06-22T06:12:04;15.60;;;10.95;;
69985;SDS011;57328;52.054;5.294;2023-06-22T06:14:32;16.48;;;11.73;;
69985;SDS011;57328;52.054;5.294;2023-06-22T06:16:59;16.13;;;12.32;;
69985;SDS011;57328;52.054;5.294;2023-06-22T06:19:26;17.00;;;11.68;;
69985;SDS011;57328;52.054;5.294;2023-06-22T06:21:53;16.00;;;10.98;;
69985;SDS011;57328;52.054;5.294;2023-06-22T06:24:21;19.00;;;11.13;;
69985;SDS011;57328;52.054;5.294;2023-06-22T06:26:48;15.43;;;10.73;;
69985;SDS011;57328;52.054;5.294;2023-06-22T06:29:15;15.95;;;10.38;;
69985;SDS011;57328;52.054;5.294;2023-06-22T06:31:42;16.85;;;10.25;;
69985;SDS011;57328;52.054;5.294;2023-06-22T06:34:10;15.15;;;9.80;;
69985;SDS011;57328;52.054;5.294;2023-06-22T06:36:37;14.82;;;10.15;;
69985;SDS011;57328;52.054;5.294;2023-06-22T06:39:04;15.02;;;10.02;;
69985;SDS011;57328;52.054;5.294;2023-06-22T06:41:31;15.23;;;9.68;;
69985;SDS011;57328;52.054;5.294;2023-06-22T06:43:59;16.17;;;10.80;;
69985;SDS011;57328;52.054;5.294;2023-06-22T06:46:27;14.70;;;10.38;;
69985;SDS011;57328;52.054;5.294;2023-06-22T06:48:55;15.15;;;10.25;;
69985;SDS011;57328;52.054;5.294;2023-06-22T06:51:22;14.85;;;11.55;;
69985;SDS011;57328;52.054;5.294;2023-06-22T06:53:49;21.73;;;11.60;;
69985;SDS011;57328;52.054;5.294;2023-06-22T06:56:16;16.20;;;10.30;;
69985;SDS011;57328;52.054;5.294;2023-06-22T06:58:44;15.02;;;10.45;;
69985;SDS011;57328;52.054;5.294;2023-06-22T07:01:12;15.13;;;9.70;;
69985;SDS011;57328;52.054;5.294;2023-06-22T07:03:40;16.88;;;11.50;;
69985;SDS011;57328;52.054;5.294;2023-06-22T07:06:08;16.65;;;10.65;;
69985;SDS011;57328;52.054;5.294;2023-06-22T07:08:35;19.63;;;10.48;;
69985;SDS011;57328;52.054;5.294;2023-06-22T07:11:03;20.67;;;12.73;;
69985;SDS011;57328;52.054;5.294;2023-06-22T07:13:30;15.70;;;10.93;;
69985;SDS011;57328;52.054;5.294;2023-06-22T07:15:57;16.42;;;10.77;;
69985;SDS011;57328;52.054;5.294;2023-06-22T07:18:25;17.15;;;11.40;;
69985;SDS011;57328;52.054;5.294;2023-06-22T07:20:52;17.10;;;12.05;;
69985;SDS011;57328;52.054;5.294;2023-06-22T07:23:20;19.35;;;13.35;;
69985;SDS011;57328;52.054;5.294;2023-06-22T07:25:51;18.17;;;12.93;;
69985;SDS011;57328;52.054;5.294;2023-06-22T07:28:18;17.00;;;13.10;;
69985;SDS011;57328;52.054;5.294;2023-06-22T07:30:45;17.42;;;12.60;;
69985;SDS011;57328;52.054;5.294;2023-06-22T07:33:14;20.15;;;12.30;;
69985;SDS011;57328;52.054;5.294;2023-06-22T07:35:41;15.13;;;10.63;;
69985;SDS011;57328;52.054;5.294;2023-06-22T07:38:08;16.67;;;12.30;;
69985;SDS011;57328;52.054;5.294;2023-06-22T07:40:36;19.05;;;11.63;;
69985;SDS011;57328;52.054;5.294;2023-06-22T07:43:03;17.80;;;12.48;;
69985;SDS011;57328;52.054;5.294;2023-06-22T07:45:30;17.67;;;12.00;;
69985;SDS011;57328;52.054;5.294;2023-06-22T07:48:01;16.80;;;10.77;;
69985;SDS011;57328;52.054;5.294;2023-06-22T07:50:28;16.30;;;11.10;;
69985;SDS011;57328;52.054;5.294;2023-06-22T07:52:56;15.65;;;10.38;;
69985;SDS011;57328;52.054;5.294;2023-06-22T07:55:23;16.65;;;11.95;;
69985;SDS011;57328;52.054;5.294;2023-06-22T07:57:50;17.00;;;10.82;;
69985;SDS011;57328;52.054;5.294;2023-06-22T08:00:18;14.90;;;9.63;;
69985;SDS011;57328;52.054;5.294;2023-06-22T08:02:46;15.15;;;9.77;;
69985;SDS011;57328;52.054;5.294;2023-06-22T08:05:14;16.33;;;9.88;;
69985;SDS011;57328;52.054;5.294;2023-06-22T08:07:44;14.98;;;9.35;;
69985;SDS011;57328;52.054;5.294;2023-06-22T08:10:14;14.38;;;9.27;;
69985;SDS011;57328;52.054;5.294;2023-06-22T08:12:41;12.48;;;8.30;;
69985;SDS011;57328;52.054;5.294;2023-06-22T08:15:09;11.45;;;7.82;;
69985;SDS011;57328;52.054;5.294;2023-06-22T08:20:04;12.27;;;8.10;;
69985;SDS011;57328;52.054;5.294;2023-06-22T08:22:42;14.57;;;7.43;;
69985;SDS011;57328;52.054;5.294;2023-06-22T08:25:10;12.10;;;8.27;;
69985;SDS011;57328;52.054;5.294;2023-06-22T08:27:37;14.40;;;7.47;;
69985;SDS011;57328;52.054;5.294;2023-06-22T08:30:06;19.83;;;8.15;;
69985;SDS011;57328;52.054;5.294;2023-06-22T08:32:34;13.95;;;8.27;;
69985;SDS011;57328;52.054;5.294;2023-06-22T08:35:01;15.98;;;8.82;;
69985;SDS011;57328;52.054;5.294;2023-06-22T08:40:02;12.07;;;7.68;;
69985;SDS011;57328;52.054;5.294;2023-06-22T08:42:34;12.25;;;7.85;;
69985;SDS011;57328;52.054;5.294;2023-06-22T08:45:02;14.23;;;9.45;;
69985;SDS011;57328;52.054;5.294;2023-06-22T08:47:29;15.40;;;8.80;;
69985;SDS011;57328;52.054;5.294;2023-06-22T08:49:57;12.35;;;6.50;;
69985;SDS011;57328;52.054;5.294;2023-06-22T08:52:24;12.50;;;7.53;;
69985;SDS011;57328;52.054;5.294;2023-06-22T08:57:20;13.38;;;7.05;;
69985;SDS011;57328;52.054;5.294;2023-06-22T08:59:47;11.55;;;6.90;;
69985;SDS011;57328;52.054;5.294;2023-06-22T09:02:14;14.60;;;8.35;;
69985;SDS011;57328;52.054;5.294;2023-06-22T09:04:43;10.73;;;7.00;;
69985;SDS011;57328;52.054;5.294;2023-06-22T09:07:10;10.68;;;7.15;;
69985;SDS011;57328;52.054;5.294;2023-06-22T09:09:40;17.42;;;8.05;;
69985;SDS011;57328;52.054;5.294;2023-06-22T09:12:08;11.77;;;7.57;;
69985;SDS011;57328;52.054;5.294;2023-06-22T09:17:04;10.88;;;6.65;;
69985;SDS011;57328;52.054;5.294;2023-06-22T09:19:32;10.55;;;6.30;;
69985;SDS011;57328;52.054;5.294;2023-06-22T09:21:59;11.88;;;7.10;;
69985;SDS011;57328;52.054;5.294;2023-06-22T09:24:27;13.00;;;6.80;;
69985;SDS011;57328;52.054;5.294;2023-06-22T09:29:23;10.05;;;6.20;;
69985;SDS011;57328;52.054;5.294;2023-06-22T09:34:22;11.00;;;5.63;;
69985;SDS011;57328;52.054;5.294;2023-06-22T09:36:49;9.23;;;5.60;;
69985;SDS011;57328;52.054;5.294;2023-06-22T09:39:20;10.95;;;4.93;;
69985;SDS011;57328;52.054;5.294;2023-06-22T09:41:47;8.50;;;4.95;;
69985;SDS011;57328;52.054;5.294;2023-06-22T09:44:14;9.00;;;5.28;;
69985;SDS011;57328;52.054;5.294;2023-06-22T09:46:41;9.80;;;5.20;;
69985;SDS011;57328;52.054;5.294;2023-06-22T09:49:09;8.35;;;5.03;;
69985;SDS011;57328;52.054;5.294;2023-06-22T09:51:36;10.73;;;5.47;;
69985;SDS011;57328;52.054;5.294;2023-06-22T09:54:03;10.23;;;5.03;;
69985;SDS011;57328;52.054;5.294;2023-06-22T09:56:30;11.13;;;7.32;;
69985;SDS011;57328;52.054;5.294;2023-06-22T10:01:43;8.65;;;4.93;;
69985;SDS011;57328;52.054;5.294;2023-06-22T10:04:18;8.60;;;4.65;;
69985;SDS011;57328;52.054;5.294;2023-06-22T10:06:46;7.95;;;4.10;;
69985;SDS011;57328;52.054;5.294;2023-06-22T10:09:13;7.90;;;4.07;;
69985;SDS011;57328;52.054;5.294;2023-06-22T10:11:42;8.18;;;4.70;;
69985;SDS011;57328;52.054;5.294;2023-06-22T10:14:12;7.70;;;4.47;;
69985;SDS011;57328;52.054;5.294;2023-06-22T10:16:39;8.25;;;4.13;;
69985;SDS011;57328;52.054;5.294;2023-06-22T10:19:08;8.60;;;4.00;;
69985;SDS011;57328;52.054;5.294;2023-06-22T10:21:35;8.55;;;4.05;;
69985;SDS011;57328;52.054;5.294;2023-06-22T10:24:02;8.07;;;4.05;;
69985;SDS011;57328;52.054;5.294;2023-06-22T10:26:33;7.65;;;4.50;;
69985;SDS011;57328;52.054;5.294;2023-06-22T10:29:00;10.60;;;4.70;;
69985;SDS011;57328;52.054;5.294;2023-06-22T10:31:41;7.95;;;4.53;;
69985;SDS011;57328;52.054;5.294;2023-06-22T10:34:09;8.52;;;3.97;;
69985;SDS011;57328;52.054;5.294;2023-06-22T10:36:36;7.38;;;4.20;;
69985;SDS011;57328;52.054;5.294;2023-06-22T10:39:03;7.93;;;4.20;;
69985;SDS011;57328;52.054;5.294;2023-06-22T10:41:31;11.93;;;5.25;;
69985;SDS011;57328;52.054;5.294;2023-06-22T10:43:58;9.15;;;4.50;;
69985;SDS011;57328;52.054;5.294;2023-06-22T10:46:25;9.02;;;4.20;;
69985;SDS011;57328;52.054;5.294;2023-06-22T10:48:54;8.32;;;3.83;;
69985;SDS011;57328;52.054;5.294;2023-06-22T10:51:23;9.02;;;4.32;;
69985;SDS011;57328;52.054;5.294;2023-06-22T10:53:50;8.18;;;4.00;;
69985;SDS011;57328;52.054;5.294;2023-06-22T10:56:17;6.90;;;3.78;;
69985;SDS011;57328;52.054;5.294;2023-06-22T10:58:45;6.25;;;3.55;;
69985;SDS011;57328;52.054;5.294;2023-06-22T11:01:12;7.97;;;3.65;;
69985;SDS011;57328;52.054;5.294;2023-06-22T11:03:59;7.90;;;4.15;;
69985;SDS011;57328;52.054;5.294;2023-06-22T11:06:26;8.88;;;4.10;;
69985;SDS011;57328;52.054;5.294;2023-06-22T11:08:55;8.13;;;3.58;;
69985;SDS011;57328;52.054;5.294;2023-06-22T11:11:37;8.48;;;3.50;;
69985;SDS011;57328;52.054;5.294;2023-06-22T11:14:05;8.73;;;4.10;;
69985;SDS011;57328;52.054;5.294;2023-06-22T11:16:32;8.35;;;3.92;;
69985;SDS011;57328;52.054;5.294;2023-06-22T11:19:00;8.27;;;3.83;;
69985;SDS011;57328;52.054;5.294;2023-06-22T11:21:31;6.95;;;3.63;;
69985;SDS011;57328;52.054;5.294;2023-06-22T11:23:59;7.53;;;3.63;;
69985;SDS011;57328;52.054;5.294;2023-06-22T11:26:26;7.57;;;4.03;;
69985;SDS011;57328;52.054;5.294;2023-06-22T11:28:54;11.13;;;4.18;;
69985;SDS011;57328;52.054;5.294;2023-06-22T11:31:21;8.27;;;3.90;;
69985;SDS011;57328;52.054;5.294;2023-06-22T11:33:52;7.75;;;4.45;;
69985;SDS011;57328;52.054;5.294;2023-06-22T11:36:19;6.65;;;3.53;;
69985;SDS011;57328;52.054;5.294;2023-06-22T11:38:46;8.20;;;4.22;;
69985;SDS011;57328;52.054;5.294;2023-06-22T11:41:14;8.85;;;4.05;;
69985;SDS011;57328;52.054;5.294;2023-06-22T11:43:41;8.18;;;3.90;;
69985;SDS011;57328;52.054;5.294;2023-06-22T11:46:08;7.40;;;3.90;;
69985;SDS011;57328;52.054;5.294;2023-06-22T11:48:35;9.35;;;4.20;;
69985;SDS011;57328;52.054;5.294;2023-06-22T11:51:03;9.20;;;5.10;;
69985;SDS011;57328;52.054;5.294;2023-06-22T11:53:32;10.30;;;5.93;;
69985;SDS011;57328;52.054;5.294;2023-06-22T11:56:02;9.57;;;5.70;;
69985;SDS011;57328;52.054;5.294;2023-06-22T11:58:30;10.13;;;5.20;;
69985;SDS011;57328;52.054;5.294;2023-06-22T12:00:57;8.48;;;4.90;;
69985;SDS011;57328;52.054;5.294;2023-06-22T12:03:24;9.93;;;4.97;;
69985;SDS011;57328;52.054;5.294;2023-06-22T12:05:51;10.10;;;5.65;;
69985;SDS011;57328;52.054;5.294;2023-06-22T12:08:19;10.73;;;5.70;;
69985;SDS011;57328;52.054;5.294;2023-06-22T12:10:46;12.52;;;7.18;;
69985;SDS011;57328;52.054;5.294;2023-06-22T12:13:13;11.50;;;5.97;;
69985;SDS011;57328;52.054;5.294;2023-06-22T12:15:40;12.40;;;7.28;;
69985;SDS011;57328;52.054;5.294;2023-06-22T12:18:07;10.75;;;6.70;;
69985;SDS011;57328;52.054;5.294;2023-06-22T12:20:35;12.18;;;6.60;;
69985;SDS011;57328;52.054;5.294;2023-06-22T12:23:02;12.05;;;6.68;;
69985;SDS011;57328;52.054;5.294;2023-06-22T12:25:29;11.35;;;5.90;;
69985;SDS011;57328;52.054;5.294;2023-06-22T12:27:57;19.55;;;6.78;;
69985;SDS011;57328;52.054;5.294;2023-06-22T12:30:24;10.30;;;6.00;;
69985;SDS011;57328;52.054;5.294;2023-06-22T12:32:51;14.23;;;6.47;;
69985;SDS011;57328;52.054;5.294;2023-06-22T12:38:07;11.55;;;6.45;;
69985;SDS011;57328;52.054;5.294;2023-06-22T12:40:35;15.20;;;7.22;;
69985;SDS011;57328;52.054;5.294;2023-06-22T12:43:02;14.40;;;8.75;;
69985;SDS011;57328;52.054;5.294;2023-06-22T12:45:30;12.13;;;6.53;;
69985;SDS011;57328;52.054;5.294;2023-06-22T12:47:59;13.85;;;7.20;;
69985;SDS011;57328;52.054;5.294;2023-06-22T12:50:28;14.02;;;7.07;;
69985;SDS011;57328;52.054;5.294;2023-06-22T12:52:56;11.02;;;6.88;;
69985;SDS011;57328;52.054;5.294;2023-06-22T12:55:24;11.52;;;6.18;;
69985;SDS011;57328;52.054;5.294;2023-06-22T12:57:51;15.50;;;6.70;;
69985;SDS011;57328;52.054;5.294;2023-06-22T13:00:18;10.93;;;6.82;;
69985;SDS011;57328;52.054;5.294;2023-06-22T13:02:46;15.85;;;7.68;;
69985;SDS011;57328;52.054;5.294;2023-06-22T13:05:13;12.95;;;7.50;;
69985;SDS011;57328;52.054;5.294;2023-06-22T13:07:41;13.75;;;7.90;;
69985;SDS011;57328;52.054;5.294;2023-06-22T13:10:09;14.88;;;8.40;;
69985;SDS011;57328;52.054;5.294;2023-06-22T13:12:39;13.93;;;8.23;;
69985;SDS011;57328;52.054;5.294;2023-06-22T13:15:20;12.35;;;8.20;;
69985;SDS011;57328;52.054;5.294;2023-06-22T13:17:57;16.10;;;9.85;;
69985;SDS011;57328;52.054;5.294;2023-06-22T13:20:33;12.60;;;8.68;;
69985;SDS011;57328;52.054;5.294;2023-06-22T13:23:00;12.55;;;8.23;;
69985;SDS011;57328;52.054;5.294;2023-06-22T13:25:29;14.45;;;9.25;;
69985;SDS011;57328;52.054;5.294;2023-06-22T13:27:57;15.18;;;9.68;;
69985;SDS011;57328;52.054;5.294;2023-06-22T13:30:38;15.55;;;9.88;;
69985;SDS011;57328;52.054;5.294;2023-06-22T13:33:05;14.75;;;9.18;;
69985;SDS011;57328;52.054;5.294;2023-06-22T13:35:33;15.75;;;9.57;;
69985;SDS011;57328;52.054;5.294;2023-06-22T13:38:01;14.95;;;10.05;;
69985;SDS011;57328;52.054;5.294;2023-06-22T13:40:28;13.38;;;9.45;;
69985;SDS011;57328;52.054;5.294;2023-06-22T13:42:56;13.38;;;8.15;;
69985;SDS011;57328;52.054;5.294;2023-06-22T13:45:23;14.90;;;8.27;;
69985;SDS011;57328;52.054;5.294;2023-06-22T13:47:50;14.30;;;9.45;;
69985;SDS011;57328;52.054;5.294;2023-06-22T13:50:18;17.80;;;8.15;;
69985;SDS011;57328;52.054;5.294;2023-06-22T13:52:59;14.55;;;9.65;;
69985;SDS011;57328;52.054;5.294;2023-06-22T13:55:26;16.98;;;10.55;;
69985;SDS011;57328;52.054;5.294;2023-06-22T13:57:54;15.18;;;10.32;;
69985;SDS011;57328;52.054;5.294;2023-06-22T14:00:21;14.73;;;10.38;;
69985;SDS011;57328;52.054;5.294;2023-06-22T14:02:49;18.23;;;10.73;;
69985;SDS011;57328;52.054;5.294;2023-06-22T14:05:17;15.50;;;10.23;;
69985;SDS011;57328;52.054;5.294;2023-06-22T14:07:45;18.00;;;11.43;;
69985;SDS011;57328;52.054;5.294;2023-06-22T14:10:12;16.92;;;11.73;;
69985;SDS011;57328;52.054;5.294;2023-06-22T14:15:07;17.52;;;11.95;;
69985;SDS011;57328;52.054;5.294;2023-06-22T14:17:34;15.95;;;10.18;;
69985;SDS011;57328;52.054;5.294;2023-06-22T14:20:02;19.25;;;10.38;;
69985;SDS011;57328;52.054;5.294;2023-06-22T14:22:30;17.92;;;11.38;;
69985;SDS011;57328;52.054;5.294;2023-06-22T14:28:26;17.42;;;10.63;;
69985;SDS011;57328;52.054;5.294;2023-06-22T14:36:51;16.60;;;11.48;;
69985;SDS011;57328;52.054;5.294;2023-06-22T14:39:19;16.02;;;11.48;;
69985;SDS011;57328;52.054;5.294;2023-06-22T14:45:10;17.35;;;10.32;;
69985;SDS011;57328;52.054;5.294;2023-06-22T14:50:25;16.30;;;11.45;;
69985;SDS011;57328;52.054;5.294;2023-06-22T14:52:53;17.75;;;11.90;;
69985;SDS011;57328;52.054;5.294;2023-06-22T14:55:21;21.48;;;12.23;;
69985;SDS011;57328;52.054;5.294;2023-06-22T14:57:48;17.05;;;11.50;;
69985;SDS011;57328;52.054;5.294;2023-06-22T15:00:15;16.63;;;12.18;;
69985;SDS011;57328;52.054;5.294;2023-06-22T15:02:43;17.52;;;11.13;;
69985;SDS011;57328;52.054;5.294;2023-06-22T15:05:11;19.10;;;11.68;;
69985;SDS011;57328;52.054;5.294;2023-06-22T15:07:38;20.73;;;11.88;;
69985;SDS011;57328;52.054;5.294;2023-06-22T15:10:05;17.65;;;11.40;;
69985;SDS011;57328;52.054;5.294;2023-06-22T15:12:33;18.30;;;11.82;;
69985;SDS011;57328;52.054;5.294;2023-06-22T15:15:00;22.50;;;12.63;;
69985;SDS011;57328;52.054;5.294;2023-06-22T15:17:27;26.70;;;17.77;;
69985;SDS011;57328;52.054;5.294;2023-06-22T15:19:57;21.33;;;14.00;;
69985;SDS011;57328;52.054;5.294;2023-06-22T15:22:24;18.63;;;12.18;;
69985;SDS011;57328;52.054;5.294;2023-06-22T15:24:55;18.83;;;13.10;;
69985;SDS011;57328;52.054;5.294;2023-06-22T15:27:24;19.33;;;12.25;;
69985;SDS011;57328;52.054;5.294;2023-06-22T15:29:51;17.85;;;11.48;;
69985;SDS011;57328;52.054;5.294;2023-06-22T15:32:18;17.63;;;11.73;;
69985;SDS011;57328;52.054;5.294;2023-06-22T15:34:46;17.73;;;11.25;;
69985;SDS011;57328;52.054;5.294;2023-06-22T15:37:13;20.70;;;12.75;;
69985;SDS011;57328;52.054;5.294;2023-06-22T15:39:45;21.20;;;14.30;;